Easton, ME (04740)

7:24 AM EST on March 03, 2015 (GMT -0500)
APRSWXNET Presque Isle ME US | Change Station
CLOSE
Current Station
Personal Weather Station
Location: Presque Isle, ME
Elevation: 649 ft
Nearby Weather Stations
Active Advisory: Winter Weather Advisory

Elev 649 ft 46.69 °N, 67.99 °W | Updated 27 minutes ago

Clear
Clear
0 °F
Feels Like -13 °F
N
7
Wind Variable Wind from WNW
Gusts 14.0 mph

Today
High -- | Low -- °F
--% Chance of Precip.
Yesterday
High -- | Low -- °F
Precip. -- in
6:08 AM 5:20 PM
Waxing Gibbous, 96% visible
Pressure 30.18 in
Visibility 10.0 miles
Clouds Clear
Windchill -13 °F
Dew Point -12 °F
Humidity 55%
Rainfall 0.02 in
Snow Depth Not available.
UV 1 out of 12
Pollen .30 out of 12
Air Quality Not available.
Flu Activity Not available.
METAR KPQI 031215Z AUTO 31008KT 10SM CLR M16/M28 A3018 RMK AO1

More Conditions Fewer Conditions

Pressure 30.18 in
Visibility 10.0 miles
Clouds Clear
Windchill -13 °F
Dew Point -12 °F
Humidity 55%
Rainfall 0.02 in
Snow Depth Not available.
UV 1 out of 12
Pollen .30 out of 12
Air Quality Not available.
Flu Activity Not available.
METAR KPQI 031215Z AUTO 31008KT 10SM CLR M16/M28 A3018 RMK AO1

More Conditions Fewer Conditions

10-Day Weather Forecast

Almanac

Astronomy

Mar. 03, 2015 Rise Set
Actual Time
Civil Twilight
Nautical Twilight
Astronomical Twilight
Moon
Length of Visible Light
Length of Day
Tomorrow will be .
, % of the Moon is Illuminated

Today's Extremes

State Highs State Lows

Community

WunderPhotos

Upload Photos

1,802,095 photos uploaded!

WunderBlogs® & News

Nearby

Air Quality

  Air Quality AQ Index Pollutant
Not available.

Snow Depth

Station Depth Elevation

Earthquake Activity

City Distance Mag. Time & Date
Minimum magnitude displayed is 2.5.

Coastal Water Temperatures

Place Temperature

Nearby Weather Stations

Winter Weather Advisory
Statement as of 5:49 AM EST on March 03, 2015

... Winter Weather Advisory remains in effect from 7 PM this
evening to 1 PM EST Wednesday...
... Wind Chill Advisory is cancelled...

The National Weather Service in Caribou has cancelled the Wind
Chill Advisory.

* Accumulations... snow accumulation of 3 to 5 inches.

* Locations... northern Aroostook... northern Piscataquis and
northern Somerset counties.

* Timing... overnight into early Tuesday morning.

* Impacts... snow will lead to snow covered roads which could
lead to some travel difficulties.

* Winds... southwest 15 to 25 mph with gusts up to 40 mph.

* Visibilities... one half of a mile at times.

* Temperatures... 4 below to 37 above zero.

Precautionary/preparedness actions...

A Winter Weather Advisory for snow means that periods of snow
will cause primarily travel difficulties. Be prepared for snow
covered roads and limited visibilities... and use caution while
driving.